Aérodrome :
LOGIN :

S'inscrire | Disclaimer

   EN    FR    IT 

 










Légende :    VFR   VFR Marginal   IFR   IFR Intensif   IFR Très Intensif
Visi : 
Plafond : 
>= 8 km
>= 3000ft
5 à 8 km
1000 à 3000 ft
1500m à 5 km
500 à 1000 ft
800 à 1500m
200 à 500 ft
< 800m
< 200 ft
Symboles :   Orages  Brouillard  Fortes neiges  Fortes précipitations  Vent > 20 kt
SIGMETs :   Divers  Orages  Givrage  Turbulence  Onde Orograph.  Cendres Volcan.







- Altitude de l'aérodrome : 423 ft
- Code IATA : PIS
- Voir les cartes d'approche


LFBI - Poitiers

DERNIER METAR :
  • 151400Z AUTO 10003KT 040V150 9999 SCT049 BKN062 OVC082 18/15 Q1008 NOSIG

METARs EXPIRÉS :
  • 151330Z AUTO VRB01KT 9999 FEW035 SCT070 OVC092 18/15 Q1008 NOSIG
  • 151300Z AUTO 04004KT 020V080 9999 FEW031/// BKN042/// BKN078/// ///TCU 17/15 Q1008 BECMG FEW020 BKN040
  • 151230Z AUTO 02005KT 360V060 9999 -RA FEW036/// SCT056/// BKN100/// ///TCU 16/15 Q1008 BECMG FEW020 BKN040
  • 151200Z AUTO 02006KT 9999 -RA FEW034 BKN043 BKN062 16/15 Q1008 TEMPO BKN014 BECMG 11010KT
  • 151130Z AUTO 02005KT 9999 RA BKN046 OVC054 15/14 Q1008 TEMPO NSW BKN014 BECMG 11010KT

TAF TAF LFBI
Valide du 15 à 12h jusqu'au 16 à 12h UTC


151100Z 1512/1612 02010KT 9999 FEW020 BKN040
TEMPO 1512/1514 -RA BKN014
BECMG 1513/1516 11010KT
TEMPO 1600/1610 VRB02KT 3000 BR OVC003
PROB30 1605/1609 0800 FG VV///
TEMPO 1610/1611 BKN010
Pas de NOTAMs connus pour ce terrain.
1 SIGMET publié pour la FIR Bordeaux (LFBB) :
 
Turbulence forte
LFBB SIGMET 8 VALID 151400/151800 LFPW
LFBB BORDEAUX FIR/UIR SEV TURB FCST WI N4600 E00300 - N4400 E00245 - N4545 E00200 - N4600 E00300 SFC/FL070 STNR NC=



MET'MAP, la Météo Aéronautique d'un coup d'oeil ! - Copyright ORBIFLY Décembre 2007 - Disclaimer

ORBIFLY MET'MAP TEAM :

Programmation & Développement : Alexandra Zaïnal
Conception & Développement : Baudouin d'Aumeries
Co-Programmation & Développement : Marc-Olivier Méhu
Soutien technique & logistique : Manuel Goepfert

Contact : metmap@orbifly.com




SOURCES & CREDITS :

   NOAA